sensor_id;sensor_type;location;lat;lon;timestamp;P1;durP1;ratioP1;P2;durP2;ratioP2
41927;SDS011;27616;51.420;6.788;2023-04-03T00:00:34;11.27;;;4.87;;
41927;SDS011;27616;51.420;6.788;2023-04-03T00:02:59;9.77;;;5.40;;
41927;SDS011;27616;51.420;6.788;2023-04-03T00:05:25;9.70;;;5.23;;
41927;SDS011;27616;51.420;6.788;2023-04-03T00:07:51;11.83;;;5.63;;
41927;SDS011;27616;51.420;6.788;2023-04-03T00:10:17;11.30;;;4.93;;
41927;SDS011;27616;51.420;6.788;2023-04-03T00:12:43;12.43;;;5.37;;
41927;SDS011;27616;51.420;6.788;2023-04-03T00:15:08;14.40;;;5.13;;
41927;SDS011;27616;51.420;6.788;2023-04-03T00:17:34;8.90;;;4.93;;
41927;SDS011;27616;51.420;6.788;2023-04-03T00:20:00;12.17;;;5.53;;
41927;SDS011;27616;51.420;6.788;2023-04-03T00:22:26;11.73;;;5.40;;
41927;SDS011;27616;51.420;6.788;2023-04-03T00:24:53;10.37;;;5.00;;
41927;SDS011;27616;51.420;6.788;2023-04-03T00:27:20;10.63;;;5.47;;
41927;SDS011;27616;51.420;6.788;2023-04-03T00:29:45;12.90;;;5.27;;
41927;SDS011;27616;51.420;6.788;2023-04-03T00:32:11;12.13;;;5.67;;
41927;SDS011;27616;51.420;6.788;2023-04-03T00:34:37;11.87;;;4.67;;
41927;SDS011;27616;51.420;6.788;2023-04-03T00:37:02;10.77;;;5.40;;
41927;SDS011;27616;51.420;6.788;2023-04-03T00:39:28;10.60;;;5.60;;
41927;SDS011;27616;51.420;6.788;2023-04-03T00:41:54;11.60;;;5.27;;
41927;SDS011;27616;51.420;6.788;2023-04-03T00:44:21;11.87;;;5.83;;
41927;SDS011;27616;51.420;6.788;2023-04-03T00:47:07;13.77;;;6.27;;
41927;SDS011;27616;51.420;6.788;2023-04-03T00:49:36;9.95;;;6.25;;
41927;SDS011;27616;51.420;6.788;2023-04-03T00:52:03;15.40;;;6.23;;
41927;SDS011;27616;51.420;6.788;2023-04-03T00:54:32;17.20;;;6.30;;
41927;SDS011;27616;51.420;6.788;2023-04-03T00:57:00;13.07;;;6.53;;
41927;SDS011;27616;51.420;6.788;2023-04-03T00:59:35;15.17;;;6.40;;
41927;SDS011;27616;51.420;6.788;2023-04-03T01:02:06;16.43;;;7.03;;
41927;SDS011;27616;51.420;6.788;2023-04-03T01:07:04;12.60;;;6.80;;
41927;SDS011;27616;51.420;6.788;2023-04-03T01:09:35;13.67;;;6.77;;
41927;SDS011;27616;51.420;6.788;2023-04-03T01:12:21;15.03;;;6.40;;
41927;SDS011;27616;51.420;6.788;2023-04-03T01:14:52;13.55;;;7.78;;
41927;SDS011;27616;51.420;6.788;2023-04-03T01:25:28;14.23;;;7.47;;
41927;SDS011;27616;51.420;6.788;2023-04-03T01:27:57;17.83;;;8.52;;
41927;SDS011;27616;51.420;6.788;2023-04-03T01:30:24;19.30;;;9.17;;
41927;SDS011;27616;51.420;6.788;2023-04-03T01:32:56;14.63;;;7.87;;
41927;SDS011;27616;51.420;6.788;2023-04-03T01:35:23;13.70;;;7.63;;
41927;SDS011;27616;51.420;6.788;2023-04-03T01:37:50;16.60;;;8.80;;
41927;SDS011;27616;51.420;6.788;2023-04-03T01:40:15;16.53;;;8.77;;
41927;SDS011;27616;51.420;6.788;2023-04-03T01:42:42;15.17;;;9.20;;
41927;SDS011;27616;51.420;6.788;2023-04-03T01:45:08;15.40;;;8.70;;
41927;SDS011;27616;51.420;6.788;2023-04-03T01:47:34;15.77;;;8.43;;
41927;SDS011;27616;51.420;6.788;2023-04-03T01:50:00;15.10;;;8.10;;
41927;SDS011;27616;51.420;6.788;2023-04-03T01:52:29;16.40;;;8.80;;
41927;SDS011;27616;51.420;6.788;2023-04-03T01:54:55;15.47;;;8.10;;
41927;SDS011;27616;51.420;6.788;2023-04-03T01:57:21;15.07;;;7.80;;
41927;SDS011;27616;51.420;6.788;2023-04-03T01:59:47;15.70;;;7.93;;
41927;SDS011;27616;51.420;6.788;2023-04-03T02:02:13;14.10;;;8.17;;
41927;SDS011;27616;51.420;6.788;2023-04-03T02:04:40;18.43;;;8.10;;
41927;SDS011;27616;51.420;6.788;2023-04-03T02:07:06;13.03;;;7.50;;
41927;SDS011;27616;51.420;6.788;2023-04-03T02:09:32;16.13;;;7.67;;
41927;SDS011;27616;51.420;6.788;2023-04-03T02:11:57;17.80;;;7.10;;
41927;SDS011;27616;51.420;6.788;2023-04-03T02:14:24;15.37;;;7.20;;
41927;SDS011;27616;51.420;6.788;2023-04-03T02:16:50;14.80;;;6.97;;
41927;SDS011;27616;51.420;6.788;2023-04-03T02:19:15;13.00;;;6.43;;
41927;SDS011;27616;51.420;6.788;2023-04-03T02:21:41;10.20;;;6.13;;
41927;SDS011;27616;51.420;6.788;2023-04-03T02:24:07;11.10;;;6.07;;
41927;SDS011;27616;51.420;6.788;2023-04-03T02:26:33;11.73;;;6.00;;
41927;SDS011;27616;51.420;6.788;2023-04-03T02:28:59;11.07;;;5.60;;
41927;SDS011;27616;51.420;6.788;2023-04-03T02:31:24;10.07;;;5.63;;
41927;SDS011;27616;51.420;6.788;2023-04-03T02:33:51;12.53;;;5.13;;
41927;SDS011;27616;51.420;6.788;2023-04-03T02:36:17;11.60;;;5.67;;
41927;SDS011;27616;51.420;6.788;2023-04-03T02:38:49;10.83;;;4.90;;
41927;SDS011;27616;51.420;6.788;2023-04-03T02:41:15;12.07;;;5.10;;
41927;SDS011;27616;51.420;6.788;2023-04-03T02:43:41;14.33;;;5.40;;
41927;SDS011;27616;51.420;6.788;2023-04-03T02:46:07;10.53;;;5.30;;
41927;SDS011;27616;51.420;6.788;2023-04-03T02:48:33;11.27;;;5.53;;
41927;SDS011;27616;51.420;6.788;2023-04-03T02:51:00;10.87;;;5.03;;
41927;SDS011;27616;51.420;6.788;2023-04-03T02:53:26;10.80;;;5.30;;
41927;SDS011;27616;51.420;6.788;2023-04-03T02:55:52;11.23;;;5.33;;
41927;SDS011;27616;51.420;6.788;2023-04-03T02:58:18;13.00;;;5.07;;
41927;SDS011;27616;51.420;6.788;2023-04-03T03:00:44;12.83;;;5.17;;
41927;SDS011;27616;51.420;6.788;2023-04-03T03:03:10;11.37;;;4.80;;
41927;SDS011;27616;51.420;6.788;2023-04-03T03:05:35;10.80;;;4.90;;
41927;SDS011;27616;51.420;6.788;2023-04-03T03:08:01;13.47;;;5.13;;
41927;SDS011;27616;51.420;6.788;2023-04-03T03:10:27;10.87;;;4.97;;
41927;SDS011;27616;51.420;6.788;2023-04-03T03:12:52;9.50;;;4.37;;
41927;SDS011;27616;51.420;6.788;2023-04-03T03:15:18;10.93;;;4.87;;
41927;SDS011;27616;51.420;6.788;2023-04-03T03:17:44;9.47;;;4.07;;
41927;SDS011;27616;51.420;6.788;2023-04-03T03:20:10;12.90;;;4.43;;
41927;SDS011;27616;51.420;6.788;2023-04-03T03:22:39;8.13;;;4.13;;
41927;SDS011;27616;51.420;6.788;2023-04-03T03:25:05;9.63;;;4.10;;
41927;SDS011;27616;51.420;6.788;2023-04-03T03:27:31;7.63;;;3.97;;
41927;SDS011;27616;51.420;6.788;2023-04-03T03:29:56;8.57;;;3.87;;
41927;SDS011;27616;51.420;6.788;2023-04-03T03:32:22;8.13;;;3.53;;
41927;SDS011;27616;51.420;6.788;2023-04-03T03:34:48;7.17;;;3.40;;
41927;SDS011;27616;51.420;6.788;2023-04-03T03:37:13;6.93;;;3.23;;
41927;SDS011;27616;51.420;6.788;2023-04-03T03:39:39;9.57;;;2.93;;
41927;SDS011;27616;51.420;6.788;2023-04-03T03:42:05;10.03;;;3.13;;
41927;SDS011;27616;51.420;6.788;2023-04-03T03:44:31;9.10;;;3.00;;
41927;SDS011;27616;51.420;6.788;2023-04-03T03:46:57;11.20;;;3.47;;
41927;SDS011;27616;51.420;6.788;2023-04-03T03:49:23;6.77;;;2.53;;
41927;SDS011;27616;51.420;6.788;2023-04-03T03:51:49;7.57;;;3.00;;
41927;SDS011;27616;51.420;6.788;2023-04-03T03:54:16;6.17;;;2.47;;
41927;SDS011;27616;51.420;6.788;2023-04-03T03:56:42;7.47;;;3.57;;
41927;SDS011;27616;51.420;6.788;2023-04-03T03:59:08;7.17;;;2.87;;
41927;SDS011;27616;51.420;6.788;2023-04-03T04:01:36;8.43;;;3.30;;
41927;SDS011;27616;51.420;6.788;2023-04-03T04:04:02;8.87;;;2.77;;
41927;SDS011;27616;51.420;6.788;2023-04-03T04:06:30;7.13;;;2.50;;
41927;SDS011;27616;51.420;6.788;2023-04-03T04:11:25;6.63;;;2.47;;
41927;SDS011;27616;51.420;6.788;2023-04-03T04:13:53;10.23;;;2.20;;
41927;SDS011;27616;51.420;6.788;2023-04-03T04:16:23;6.57;;;2.33;;
41927;SDS011;27616;51.420;6.788;2023-04-03T04:18:49;8.17;;;2.63;;
41927;SDS011;27616;51.420;6.788;2023-04-03T04:21:15;9.30;;;2.50;;
41927;SDS011;27616;51.420;6.788;2023-04-03T04:23:43;6.30;;;2.70;;
41927;SDS011;27616;51.420;6.788;2023-04-03T04:26:08;10.30;;;2.50;;
41927;SDS011;27616;51.420;6.788;2023-04-03T04:28:36;10.80;;;3.47;;
41927;SDS011;27616;51.420;6.788;2023-04-03T04:31:03;8.93;;;2.87;;
41927;SDS011;27616;51.420;6.788;2023-04-03T04:33:30;9.20;;;2.40;;
41927;SDS011;27616;51.420;6.788;2023-04-03T04:35:58;7.90;;;2.60;;
41927;SDS011;27616;51.420;6.788;2023-04-03T04:38:23;10.93;;;2.73;;
41927;SDS011;27616;51.420;6.788;2023-04-03T04:40:51;7.17;;;2.40;;
41927;SDS011;27616;51.420;6.788;2023-04-03T04:43:18;8.63;;;2.60;;
41927;SDS011;27616;51.420;6.788;2023-04-03T04:45:46;11.27;;;2.90;;
41927;SDS011;27616;51.420;6.788;2023-04-03T04:48:13;9.17;;;2.50;;
41927;SDS011;27616;51.420;6.788;2023-04-03T04:50:39;7.47;;;2.30;;
41927;SDS011;27616;51.420;6.788;2023-04-03T04:53:05;8.37;;;2.50;;
41927;SDS011;27616;51.420;6.788;2023-04-03T04:55:31;17.13;;;2.60;;
41927;SDS011;27616;51.420;6.788;2023-04-03T04:57:57;12.07;;;2.27;;
41927;SDS011;27616;51.420;6.788;2023-04-03T05:00:23;7.20;;;2.40;;
41927;SDS011;27616;51.420;6.788;2023-04-03T05:02:48;6.27;;;2.40;;
41927;SDS011;27616;51.420;6.788;2023-04-03T05:05:15;7.10;;;2.43;;
41927;SDS011;27616;51.420;6.788;2023-04-03T05:07:40;10.27;;;2.70;;
41927;SDS011;27616;51.420;6.788;2023-04-03T05:10:07;7.27;;;2.67;;
41927;SDS011;27616;51.420;6.788;2023-04-03T05:12:33;7.63;;;2.30;;
41927;SDS011;27616;51.420;6.788;2023-04-03T05:15:02;8.13;;;2.40;;
41927;SDS011;27616;51.420;6.788;2023-04-03T05:17:30;8.67;;;2.60;;
41927;SDS011;27616;51.420;6.788;2023-04-03T05:19:57;7.53;;;2.30;;
41927;SDS011;27616;51.420;6.788;2023-04-03T05:22:25;9.57;;;2.57;;
41927;SDS011;27616;51.420;6.788;2023-04-03T05:24:54;8.02;;;3.22;;
41927;SDS011;27616;51.420;6.788;2023-04-03T05:27:20;7.37;;;2.67;;
41927;SDS011;27616;51.420;6.788;2023-04-03T05:29:52;10.87;;;3.13;;
41927;SDS011;27616;51.420;6.788;2023-04-03T05:32:20;9.18;;;2.63;;
41927;SDS011;27616;51.420;6.788;2023-04-03T05:34:51;7.00;;;2.30;;
41927;SDS011;27616;51.420;6.788;2023-04-03T05:37:18;6.93;;;2.27;;
41927;SDS011;27616;51.420;6.788;2023-04-03T05:39:44;6.03;;;2.20;;
41927;SDS011;27616;51.420;6.788;2023-04-03T05:42:11;8.00;;;2.30;;
41927;SDS011;27616;51.420;6.788;2023-04-03T05:44:39;6.30;;;2.10;;
41927;SDS011;27616;51.420;6.788;2023-04-03T05:47:06;5.40;;;2.30;;
41927;SDS011;27616;51.420;6.788;2023-04-03T05:49:32;9.17;;;2.53;;
41927;SDS011;27616;51.420;6.788;2023-04-03T05:51:58;11.90;;;2.40;;
41927;SDS011;27616;51.420;6.788;2023-04-03T05:54:28;6.85;;;2.25;;
41927;SDS011;27616;51.420;6.788;2023-04-03T05:57:07;11.53;;;2.50;;
41927;SDS011;27616;51.420;6.788;2023-04-03T05:59:33;9.73;;;2.47;;
41927;SDS011;27616;51.420;6.788;2023-04-03T06:01:59;7.30;;;2.20;;
41927;SDS011;27616;51.420;6.788;2023-04-03T06:04:26;11.43;;;3.17;;
41927;SDS011;27616;51.420;6.788;2023-04-03T06:06:53;8.67;;;2.70;;
41927;SDS011;27616;51.420;6.788;2023-04-03T06:09:22;9.07;;;2.50;;
41927;SDS011;27616;51.420;6.788;2023-04-03T06:11:50;7.53;;;2.47;;
41927;SDS011;27616;51.420;6.788;2023-04-03T06:14:17;8.27;;;2.47;;
41927;SDS011;27616;51.420;6.788;2023-04-03T06:16:43;6.60;;;2.17;;
41927;SDS011;27616;51.420;6.788;2023-04-03T06:19:10;8.93;;;2.53;;
41927;SDS011;27616;51.420;6.788;2023-04-03T06:21:40;8.87;;;2.20;;
41927;SDS011;27616;51.420;6.788;2023-04-03T06:24:07;7.73;;;2.53;;
41927;SDS011;27616;51.420;6.788;2023-04-03T06:26:33;8.67;;;2.20;;
41927;SDS011;27616;51.420;6.788;2023-04-03T06:28:59;8.77;;;2.40;;
41927;SDS011;27616;51.420;6.788;2023-04-03T06:31:25;8.73;;;2.13;;
41927;SDS011;27616;51.420;6.788;2023-04-03T06:33:51;9.50;;;2.23;;
41927;SDS011;27616;51.420;6.788;2023-04-03T06:36:18;9.50;;;2.60;;
41927;SDS011;27616;51.420;6.788;2023-04-03T06:38:45;7.60;;;1.88;;
41927;SDS011;27616;51.420;6.788;2023-04-03T06:41:12;9.13;;;2.07;;
41927;SDS011;27616;51.420;6.788;2023-04-03T06:43:37;7.43;;;2.40;;
41927;SDS011;27616;51.420;6.788;2023-04-03T06:46:03;7.17;;;2.17;;
41927;SDS011;27616;51.420;6.788;2023-04-03T06:48:30;7.47;;;2.10;;
41927;SDS011;27616;51.420;6.788;2023-04-03T06:50:56;7.90;;;2.20;;
41927;SDS011;27616;51.420;6.788;2023-04-03T06:53:21;7.27;;;2.40;;
41927;SDS011;27616;51.420;6.788;2023-04-03T06:55:47;6.90;;;2.13;;
41927;SDS011;27616;51.420;6.788;2023-04-03T06:58:13;11.10;;;2.60;;
41927;SDS011;27616;51.420;6.788;2023-04-03T07:00:40;10.87;;;2.50;;
41927;SDS011;27616;51.420;6.788;2023-04-03T07:03:06;9.10;;;2.60;;
41927;SDS011;27616;51.420;6.788;2023-04-03T07:05:32;8.73;;;2.17;;
41927;SDS011;27616;51.420;6.788;2023-04-03T07:07:58;8.87;;;2.07;;
41927;SDS011;27616;51.420;6.788;2023-04-03T07:10:24;9.17;;;2.20;;
41927;SDS011;27616;51.420;6.788;2023-04-03T07:12:49;7.20;;;2.13;;
41927;SDS011;27616;51.420;6.788;2023-04-03T07:15:16;4.93;;;1.73;;
41927;SDS011;27616;51.420;6.788;2023-04-03T07:17:42;6.10;;;2.00;;
41927;SDS011;27616;51.420;6.788;2023-04-03T07:20:08;11.37;;;2.53;;
41927;SDS011;27616;51.420;6.788;2023-04-03T07:22:34;5.87;;;2.00;;
41927;SDS011;27616;51.420;6.788;2023-04-03T07:25:00;8.17;;;1.97;;
41927;SDS011;27616;51.420;6.788;2023-04-03T07:27:26;5.73;;;2.20;;
41927;SDS011;27616;51.420;6.788;2023-04-03T07:29:52;9.40;;;2.17;;
41927;SDS011;27616;51.420;6.788;2023-04-03T07:32:17;7.00;;;2.03;;
41927;SDS011;27616;51.420;6.788;2023-04-03T07:34:43;7.67;;;2.00;;
41927;SDS011;27616;51.420;6.788;2023-04-03T07:37:09;7.60;;;1.80;;
41927;SDS011;27616;51.420;6.788;2023-04-03T07:39:35;6.20;;;2.50;;
41927;SDS011;27616;51.420;6.788;2023-04-03T07:42:01;7.60;;;2.27;;
41927;SDS011;27616;51.420;6.788;2023-04-03T07:44:27;6.80;;;2.10;;
41927;SDS011;27616;51.420;6.788;2023-04-03T07:46:53;9.03;;;2.30;;
41927;SDS011;27616;51.420;6.788;2023-04-03T07:49:21;7.07;;;2.20;;
41927;SDS011;27616;51.420;6.788;2023-04-03T07:51:49;5.40;;;2.23;;
41927;SDS011;27616;51.420;6.788;2023-04-03T07:54:15;7.47;;;2.07;;
41927;SDS011;27616;51.420;6.788;2023-04-03T07:56:41;8.10;;;2.10;;
41927;SDS011;27616;51.420;6.788;2023-04-03T07:59:08;6.10;;;2.07;;
41927;SDS011;27616;51.420;6.788;2023-04-03T08:01:35;8.60;;;2.60;;
41927;SDS011;27616;51.420;6.788;2023-04-03T08:04:01;6.07;;;2.20;;
41927;SDS011;27616;51.420;6.788;2023-04-03T08:06:27;8.27;;;2.20;;
41927;SDS011;27616;51.420;6.788;2023-04-03T08:08:55;8.63;;;2.33;;
41927;SDS011;27616;51.420;6.788;2023-04-03T08:11:21;6.27;;;2.20;;
41927;SDS011;27616;51.420;6.788;2023-04-03T08:13:47;5.03;;;1.90;;
41927;SDS011;27616;51.420;6.788;2023-04-03T08:16:15;6.83;;;2.00;;
41927;SDS011;27616;51.420;6.788;2023-04-03T08:18:43;6.97;;;2.03;;
41927;SDS011;27616;51.420;6.788;2023-04-03T08:21:09;7.33;;;2.40;;
41927;SDS011;27616;51.420;6.788;2023-04-03T08:23:37;4.03;;;1.67;;
41927;SDS011;27616;51.420;6.788;2023-04-03T08:26:08;6.57;;;2.20;;
41927;SDS011;27616;51.420;6.788;2023-04-03T08:28:35;4.33;;;1.67;;
41927;SDS011;27616;51.420;6.788;2023-04-03T08:31:04;6.23;;;1.90;;
41927;SDS011;27616;51.420;6.788;2023-04-03T08:33:32;7.53;;;1.97;;
41927;SDS011;27616;51.420;6.788;2023-04-03T08:35:58;8.83;;;1.70;;
41927;SDS011;27616;51.420;6.788;2023-04-03T08:38:24;4.43;;;1.90;;
41927;SDS011;27616;51.420;6.788;2023-04-03T08:41:01;4.83;;;1.40;;
41927;SDS011;27616;51.420;6.788;2023-04-03T08:49:24;4.40;;;1.40;;
41927;SDS011;27616;51.420;6.788;2023-04-03T08:51:54;3.80;;;1.50;;
41927;SDS011;27616;51.420;6.788;2023-04-03T08:54:30;2.70;;;1.20;;
41927;SDS011;27616;51.420;6.788;2023-04-03T08:57:01;5.93;;;1.90;;
41927;SDS011;27616;51.420;6.788;2023-04-03T08:59:31;5.55;;;1.30;;
41927;SDS011;27616;51.420;6.788;2023-04-03T09:02:01;3.47;;;1.30;;
41927;SDS011;27616;51.420;6.788;2023-04-03T09:04:32;3.20;;;1.20;;
41927;SDS011;27616;51.420;6.788;2023-04-03T09:07:02;4.50;;;1.20;;
41927;SDS011;27616;51.420;6.788;2023-04-03T09:09:40;4.30;;;1.00;;
41927;SDS011;27616;51.420;6.788;2023-04-03T09:22:54;5.27;;;1.10;;
41927;SDS011;27616;51.420;6.788;2023-04-03T09:25:27;5.10;;;1.10;;
41927;SDS011;27616;51.420;6.788;2023-04-03T09:27:59;3.50;;;0.90;;
41927;SDS011;27616;51.420;6.788;2023-04-03T09:30:26;3.57;;;1.17;;
41927;SDS011;27616;51.420;6.788;2023-04-03T09:32:53;5.30;;;1.20;;
41927;SDS011;27616;51.420;6.788;2023-04-03T09:35:27;3.10;;;1.10;;
41927;SDS011;27616;51.420;6.788;2023-04-03T09:40:47;3.23;;;1.00;;
41927;SDS011;27616;51.420;6.788;2023-04-03T09:45:46;4.13;;;1.00;;
41927;SDS011;27616;51.420;6.788;2023-04-03T09:50:59;5.03;;;0.90;;
41927;SDS011;27616;51.420;6.788;2023-04-03T09:53:31;2.17;;;0.83;;
41927;SDS011;27616;51.420;6.788;2023-04-03T09:56:00;2.77;;;0.93;;
41927;SDS011;27616;51.420;6.788;2023-04-03T09:58:29;1.97;;;0.80;;
41927;SDS011;27616;51.420;6.788;2023-04-03T10:00:59;6.13;;;2.30;;
41927;SDS011;27616;51.420;6.788;2023-04-03T10:03:31;3.53;;;1.17;;
41927;SDS011;27616;51.420;6.788;2023-04-03T10:06:04;3.00;;;1.00;;
41927;SDS011;27616;51.420;6.788;2023-04-03T10:09:03;4.63;;;1.10;;
41927;SDS011;27616;51.420;6.788;2023-04-03T10:12:23;4.60;;;1.30;;
41927;SDS011;27616;51.420;6.788;2023-04-03T10:14:35;3.05;;;1.15;;
41927;SDS011;27616;51.420;6.788;2023-04-03T10:19:57;2.60;;;0.90;;
41927;SDS011;27616;51.420;6.788;2023-04-03T10:22:43;4.47;;;1.00;;
41927;SDS011;27616;51.420;6.788;2023-04-03T10:25:23;4.05;;;1.13;;
41927;SDS011;27616;51.420;6.788;2023-04-03T10:27:58;3.42;;;0.80;;
41927;SDS011;27616;51.420;6.788;2023-04-03T10:30:29;3.42;;;1.17;;
41927;SDS011;27616;51.420;6.788;2023-04-03T10:38:39;3.33;;;0.93;;
41927;SDS011;27616;51.420;6.788;2023-04-03T10:41:21;2.97;;;1.00;;
41927;SDS011;27616;51.420;6.788;2023-04-03T10:44:30;3.30;;;1.00;;
41927;SDS011;27616;51.420;6.788;2023-04-03T10:47:12;2.95;;;0.95;;
41927;SDS011;27616;51.420;6.788;2023-04-03T10:52:57;2.75;;;0.88;;
41927;SDS011;27616;51.420;6.788;2023-04-03T11:00:47;9.30;;;1.75;;
41927;SDS011;27616;51.420;6.788;2023-04-03T11:03:24;2.58;;;0.98;;
41927;SDS011;27616;51.420;6.788;2023-04-03T11:05:56;3.15;;;1.10;;
41927;SDS011;27616;51.420;6.788;2023-04-03T11:11:08;3.55;;;1.20;;
41927;SDS011;27616;51.420;6.788;2023-04-03T11:16:29;4.85;;;1.50;;
41927;SDS011;27616;51.420;6.788;2023-04-03T11:19:02;4.13;;;1.00;;
41927;SDS011;27616;51.420;6.788;2023-04-03T11:21:51;3.65;;;1.10;;
41927;SDS011;27616;51.420;6.788;2023-04-03T11:24:25;4.25;;;1.33;;
41927;SDS011;27616;51.420;6.788;2023-04-03T11:26:52;4.55;;;1.58;;
41927;SDS011;27616;51.420;6.788;2023-04-03T11:29:23;3.75;;;1.23;;
41927;SDS011;27616;51.420;6.788;2023-04-03T11:34:44;3.97;;;1.30;;
41927;SDS011;27616;51.420;6.788;2023-04-03T11:39:47;3.17;;;1.20;;
41927;SDS011;27616;51.420;6.788;2023-04-03T11:42:27;3.35;;;1.30;;
41927;SDS011;27616;51.420;6.788;2023-04-03T11:48:41;4.22;;;1.40;;
41927;SDS011;27616;51.420;6.788;2023-04-03T11:50:53;3.13;;;1.30;;
41927;SDS011;27616;51.420;6.788;2023-04-03T12:04:24;3.42;;;1.20;;
41927;SDS011;27616;51.420;6.788;2023-04-03T12:07:11;3.35;;;1.60;;
41927;SDS011;27616;51.420;6.788;2023-04-03T12:12:24;4.78;;;1.80;;
41927;SDS011;27616;51.420;6.788;2023-04-03T12:15:12;3.75;;;1.20;;
41927;SDS011;27616;51.420;6.788;2023-04-03T12:17:44;3.50;;;1.17;;
41927;SDS011;27616;51.420;6.788;2023-04-03T12:23:24;4.47;;;1.17;;
41927;SDS011;27616;51.420;6.788;2023-04-03T12:25:50;2.67;;;1.20;;
41927;SDS011;27616;51.420;6.788;2023-04-03T12:28:16;5.60;;;1.27;;
41927;SDS011;27616;51.420;6.788;2023-04-03T12:30:41;4.77;;;1.50;;
41927;SDS011;27616;51.420;6.788;2023-04-03T12:36:18;3.47;;;1.50;;
41927;SDS011;27616;51.420;6.788;2023-04-03T12:45:06;2.73;;;1.10;;
41927;SDS011;27616;51.420;6.788;2023-04-03T12:47:41;4.82;;;1.33;;
41927;SDS011;27616;51.420;6.788;2023-04-03T12:53:05;3.13;;;1.10;;
41927;SDS011;27616;51.420;6.788;2023-04-03T12:55:36;4.03;;;1.00;;
41927;SDS011;27616;51.420;6.788;2023-04-03T12:58:15;4.17;;;1.20;;
41927;SDS011;27616;51.420;6.788;2023-04-03T13:01:01;4.47;;;1.10;;
41927;SDS011;27616;51.420;6.788;2023-04-03T13:03:39;5.37;;;1.37;;
41927;SDS011;27616;51.420;6.788;2023-04-03T13:06:52;4.23;;;1.10;;
41927;SDS011;27616;51.420;6.788;2023-04-03T13:09:14;3.43;;;1.03;;
41927;SDS011;27616;51.420;6.788;2023-04-03T13:11:55;4.50;;;1.13;;
41927;SDS011;27616;51.420;6.788;2023-04-03T13:14:35;3.40;;;1.10;;
41927;SDS011;27616;51.420;6.788;2023-04-03T13:17:14;5.53;;;1.20;;
41927;SDS011;27616;51.420;6.788;2023-04-03T13:22:11;2.57;;;1.00;;
41927;SDS011;27616;51.420;6.788;2023-04-03T13:24:42;3.67;;;1.03;;
41927;SDS011;27616;51.420;6.788;2023-04-03T13:27:10;4.60;;;1.30;;
41927;SDS011;27616;51.420;6.788;2023-04-03T13:29:37;3.90;;;1.10;;
41927;SDS011;27616;51.420;6.788;2023-04-03T13:32:04;3.53;;;1.57;;
41927;SDS011;27616;51.420;6.788;2023-04-03T13:34:37;4.53;;;1.30;;
41927;SDS011;27616;51.420;6.788;2023-04-03T13:37:06;4.00;;;1.17;;
41927;SDS011;27616;51.420;6.788;2023-04-03T13:39:43;3.13;;;1.00;;
41927;SDS011;27616;51.420;6.788;2023-04-03T13:42:24;3.73;;;1.30;;
41927;SDS011;27616;51.420;6.788;2023-04-03T13:47:49;5.73;;;1.30;;
41927;SDS011;27616;51.420;6.788;2023-04-03T13:50:25;2.73;;;1.00;;
41927;SDS011;27616;51.420;6.788;2023-04-03T13:52:55;4.27;;;1.17;;
41927;SDS011;27616;51.420;6.788;2023-04-03T13:55:28;3.13;;;1.27;;
41927;SDS011;27616;51.420;6.788;2023-04-03T13:58:00;4.65;;;1.00;;
41927;SDS011;27616;51.420;6.788;2023-04-03T14:00:51;3.93;;;1.23;;
41927;SDS011;27616;51.420;6.788;2023-04-03T14:03:26;3.20;;;1.27;;
41927;SDS011;27616;51.420;6.788;2023-04-03T14:06:10;2.77;;;0.93;;
41927;SDS011;27616;51.420;6.788;2023-04-03T14:08:41;3.23;;;1.20;;
41927;SDS011;27616;51.420;6.788;2023-04-03T14:11:20;4.67;;;1.10;;
41927;SDS011;27616;51.420;6.788;2023-04-03T14:13:53;3.43;;;1.10;;
41927;SDS011;27616;51.420;6.788;2023-04-03T14:16:23;3.28;;;1.20;;
41927;SDS011;27616;51.420;6.788;2023-04-03T14:18:52;3.70;;;1.13;;
41927;SDS011;27616;51.420;6.788;2023-04-03T14:21:18;3.13;;;1.10;;
41927;SDS011;27616;51.420;6.788;2023-04-03T14:23:45;9.30;;;1.17;;
41927;SDS011;27616;51.420;6.788;2023-04-03T14:26:21;3.77;;;1.10;;
41927;SDS011;27616;51.420;6.788;2023-04-03T14:28:50;3.13;;;0.93;;
41927;SDS011;27616;51.420;6.788;2023-04-03T14:33:44;2.63;;;1.00;;
41927;SDS011;27616;51.420;6.788;2023-04-03T14:36:14;5.33;;;1.10;;
41927;SDS011;27616;51.420;6.788;2023-04-03T14:41:06;6.27;;;1.60;;
41927;SDS011;27616;51.420;6.788;2023-04-03T14:43:32;7.10;;;1.73;;
41927;SDS011;27616;51.420;6.788;2023-04-03T14:45:58;4.73;;;0.93;;
41927;SDS011;27616;51.420;6.788;2023-04-03T14:48:25;2.93;;;1.00;;
41927;SDS011;27616;51.420;6.788;2023-04-03T14:50:52;3.40;;;1.07;;
41927;SDS011;27616;51.420;6.788;2023-04-03T14:53:19;3.67;;;0.83;;
41927;SDS011;27616;51.420;6.788;2023-04-03T14:55:47;4.07;;;1.20;;
41927;SDS011;27616;51.420;6.788;2023-04-03T14:58:14;2.60;;;0.97;;
41927;SDS011;27616;51.420;6.788;2023-04-03T15:00:42;4.07;;;1.07;;
41927;SDS011;27616;51.420;6.788;2023-04-03T15:03:20;9.37;;;1.53;;
41927;SDS011;27616;51.420;6.788;2023-04-03T15:05:47;3.57;;;1.10;;
41927;SDS011;27616;51.420;6.788;2023-04-03T15:08:17;5.30;;;1.33;;
41927;SDS011;27616;51.420;6.788;2023-04-03T15:10:48;5.67;;;1.00;;
41927;SDS011;27616;51.420;6.788;2023-04-03T15:13:14;3.47;;;1.10;;
41927;SDS011;27616;51.420;6.788;2023-04-03T15:15:40;5.77;;;1.33;;
41927;SDS011;27616;51.420;6.788;2023-04-03T15:18:09;3.83;;;1.20;;
41927;SDS011;27616;51.420;6.788;2023-04-03T15:20:40;3.43;;;0.97;;
41927;SDS011;27616;51.420;6.788;2023-04-03T15:23:08;5.27;;;0.97;;
41927;SDS011;27616;51.420;6.788;2023-04-03T15:25:35;5.80;;;1.00;;
41927;SDS011;27616;51.420;6.788;2023-04-03T15:28:01;5.07;;;1.40;;
41927;SDS011;27616;51.420;6.788;2023-04-03T15:30:27;4.07;;;1.17;;
41927;SDS011;27616;51.420;6.788;2023-04-03T15:32:53;4.40;;;1.50;;
41927;SDS011;27616;51.420;6.788;2023-04-03T15:35:18;7.03;;;1.77;;
41927;SDS011;27616;51.420;6.788;2023-04-03T15:37:44;4.10;;;1.00;;
41927;SDS011;27616;51.420;6.788;2023-04-03T15:40:10;4.27;;;1.20;;
41927;SDS011;27616;51.420;6.788;2023-04-03T15:42:36;3.23;;;1.17;;
41927;SDS011;27616;51.420;6.788;2023-04-03T15:45:02;3.60;;;1.10;;
41927;SDS011;27616;51.420;6.788;2023-04-03T15:47:28;4.17;;;1.20;;
41927;SDS011;27616;51.420;6.788;2023-04-03T15:49:54;3.20;;;1.17;;
41927;SDS011;27616;51.420;6.788;2023-04-03T15:52:21;6.83;;;1.20;;
41927;SDS011;27616;51.420;6.788;2023-04-03T15:54:47;2.90;;;1.20;;
41927;SDS011;27616;51.420;6.788;2023-04-03T15:57:12;3.47;;;1.43;;
41927;SDS011;27616;51.420;6.788;2023-04-03T15:59:38;6.47;;;1.30;;
41927;SDS011;27616;51.420;6.788;2023-04-03T16:02:05;5.53;;;1.27;;
41927;SDS011;27616;51.420;6.788;2023-04-03T16:04:32;2.73;;;0.93;;
41927;SDS011;27616;51.420;6.788;2023-04-03T16:07:00;7.27;;;1.10;;
41927;SDS011;27616;51.420;6.788;2023-04-03T16:09:29;5.67;;;1.27;;
41927;SDS011;27616;51.420;6.788;2023-04-03T16:11:56;3.20;;;1.10;;
41927;SDS011;27616;51.420;6.788;2023-04-03T16:14:22;3.40;;;1.07;;
41927;SDS011;27616;51.420;6.788;2023-04-03T16:16:48;4.53;;;1.37;;
41927;SDS011;27616;51.420;6.788;2023-04-03T16:19:14;4.20;;;1.10;;
41927;SDS011;27616;51.420;6.788;2023-04-03T16:21:39;6.50;;;1.33;;
41927;SDS011;27616;51.420;6.788;2023-04-03T16:24:05;6.13;;;1.50;;
41927;SDS011;27616;51.420;6.788;2023-04-03T16:26:31;3.20;;;1.20;;
41927;SDS011;27616;51.420;6.788;2023-04-03T16:28:57;5.77;;;1.87;;
41927;SDS011;27616;51.420;6.788;2023-04-03T16:31:23;4.07;;;1.27;;
41927;SDS011;27616;51.420;6.788;2023-04-03T16:33:51;5.90;;;1.13;;
41927;SDS011;27616;51.420;6.788;2023-04-03T16:36:17;4.27;;;1.10;;
41927;SDS011;27616;51.420;6.788;2023-04-03T16:38:42;4.53;;;1.33;;
41927;SDS011;27616;51.420;6.788;2023-04-03T16:41:08;3.73;;;1.37;;
41927;SDS011;27616;51.420;6.788;2023-04-03T16:43:34;4.73;;;1.20;;